Time;durP1;ratioP1;P1;durP2;ratioP2;P2;SDS_P1;SDS_P2;PMS_P1;PMS_P2;Temp;Humidity;BMP_temperature;BMP_pressure;BME280_temperature;BME280_humidity;BME280_pressure;Samples;Min_cycle;Max_cycle;Signal;HPM_P1;HPM_P2
2024/03/29 00:00:46;;;;;;;0.40;0.40;;;8.20;99.90;;;;;;5077348;28;20079;-86
2024/03/29 00:03:12;;;;;;;0.47;0.47;;;8.20;99.90;;;;;;5089803;28;20543;-87
2024/03/29 00:05:38;;;;;;;0.50;0.50;;;8.20;99.90;;;;;;5092297;28;20044;-86
2024/03/29 00:08:04;;;;;;;0.47;0.47;;;8.20;99.90;;;;;;5073056;28;20086;-86
2024/03/29 00:10:30;;;;;;;1.38;0.82;;;8.20;99.90;;;;;;5056387;28;20117;-86
2024/03/29 00:12:56;;;;;;;0.45;0.45;;;8.30;99.90;;;;;;5064067;28;20985;-86
2024/03/29 00:15:22;;;;;;;0.40;0.40;;;8.20;99.90;;;;;;5074851;28;20397;-84
2024/03/29 00:17:47;;;;;;;0.40;0.40;;;8.20;99.90;;;;;;5073822;28;20052;-87
2024/03/29 00:20:13;;;;;;;0.40;0.40;;;8.10;99.90;;;;;;5095535;28;20040;-86
2024/03/29 00:22:39;;;;;;;0.40;0.40;;;8.00;99.90;;;;;;5087496;28;20051;-86
2024/03/29 00:25:05;;;;;;;;;;;8.00;99.90;;;;;;5079789;28;20063;-86
2024/03/29 00:27:32;;;;;;;0.40;0.40;;;8.00;99.90;;;;;;5089197;28;19904;-85
2024/03/29 00:29:58;;;;;;;0.50;0.50;;;8.00;99.90;;;;;;5068864;28;20486;-86
2024/03/29 00:32:25;;;;;;;0.73;0.73;;;8.00;99.90;;;;;;5088371;28;20045;-85
2024/03/29 00:34:52;;;;;;;0.50;0.50;;;8.00;99.90;;;;;;5078451;28;20061;-84
2024/03/29 00:37:23;;;;;;;0.40;0.40;;;7.90;99.90;;;;;;5079090;28;20638;-86
2024/03/29 00:39:49;;;;;;;0.40;0.40;;;7.90;99.90;;;;;;5078388;28;20133;-88
2024/03/29 00:42:16;;;;;;;0.40;0.40;;;7.80;99.90;;;;;;5083125;28;20036;-85
2024/03/29 00:44:43;;;;;;;0.43;0.43;;;7.80;99.90;;;;;;5079874;28;20036;-86
2024/03/29 00:47:09;;;;;;;0.40;0.40;;;7.70;99.90;;;;;;5079729;28;20028;-85
2024/03/29 00:49:35;;;;;;;0.40;0.40;;;7.70;99.90;;;;;;5089255;28;20042;-85
2024/03/29 00:52:02;;;;;;;0.50;0.50;;;7.70;99.90;;;;;;5076011;28;20129;-87
2024/03/29 00:54:28;;;;;;;0.40;0.40;;;7.80;99.90;;;;;;5083392;28;20069;-84
2024/03/29 00:56:53;;;;;;;0.47;0.47;;;7.80;99.90;;;;;;5049285;28;20119;-86
2024/03/29 00:59:20;;;;;;;0.50;0.50;;;7.80;99.90;;;;;;5090571;28;20043;-76
2024/03/29 01:01:46;;;;;;;0.40;0.40;;;8.50;99.90;;;;;;5080438;28;20044;-77
2024/03/29 01:04:12;;;;;;;;;;;7.80;99.90;;;;;;5085611;28;20052;-75
2024/03/29 01:06:38;;;;;;;0.93;0.93;;;7.90;99.90;;;;;;5067518;28;20415;-76
2024/03/29 01:09:04;;;;;;;0.40;0.40;;;7.70;99.90;;;;;;5074354;28;20040;-75
2024/03/29 01:11:31;;;;;;;0.50;0.50;;;7.80;99.90;;;;;;5068008;28;20032;-75
2024/03/29 01:13:57;;;;;;;0.40;0.40;;;7.80;99.90;;;;;;5088765;28;20411;-75
2024/03/29 01:16:23;;;;;;;;;;;7.80;99.90;;;;;;5054143;28;20418;-75
2024/03/29 01:18:49;;;;;;;0.50;0.50;;;7.80;99.90;;;;;;5085255;28;19926;-77
2024/03/29 01:21:15;;;;;;;0.40;0.40;;;7.90;99.90;;;;;;5077364;28;20044;-75
2024/03/29 01:23:41;;;;;;;0.30;0.30;;;8.00;99.90;;;;;;5073894;28;20039;-74
2024/03/29 01:26:07;;;;;;;0.55;0.55;;;8.00;99.90;;;;;;5083921;28;20032;-76
2024/03/29 01:28:33;;;;;;;0.30;0.30;;;8.00;99.90;;;;;;5067345;28;20093;-75
2024/03/29 01:30:59;;;;;;;0.38;0.38;;;8.00;99.90;;;;;;5069230;28;20036;-76
2024/03/29 01:33:25;;;;;;;0.40;0.40;;;7.90;99.90;;;;;;5067338;28;20115;-75
2024/03/29 01:35:51;;;;;;;1.92;1.13;;;7.90;99.90;;;;;;5070546;28;20527;-75
2024/03/29 01:38:17;;;;;;;0.50;0.50;;;7.80;99.90;;;;;;5053974;28;20044;-75
2024/03/29 01:40:43;;;;;;;0.40;0.40;;;7.80;99.90;;;;;;5086875;28;20048;-75
2024/03/29 01:43:09;;;;;;;0.40;0.40;;;7.80;99.90;;;;;;5076387;28;20075;-76
2024/03/29 01:45:38;;;;;;;0.50;0.50;;;7.80;99.90;;;;;;5051816;28;20063;-75
2024/03/29 01:48:06;;;;;;;0.60;0.60;;;7.80;99.90;;;;;;5068582;28;20032;-75
2024/03/29 01:50:32;;;;;;;0.63;0.63;;;7.80;99.90;;;;;;5035927;28;20451;-75
2024/03/29 01:52:58;;;;;;;0.40;0.40;;;7.90;99.90;;;;;;5086745;28;20361;-76
2024/03/29 01:55:25;;;;;;;0.50;0.50;;;7.90;99.90;;;;;;5070173;28;20059;-76
2024/03/29 01:57:52;;;;;;;1.25;1.13;;;7.80;99.90;;;;;;5085944;28;20501;-75
2024/03/29 02:00:18;;;;;;;0.50;0.50;;;7.80;99.90;;;;;;5084684;28;20032;-75
2024/03/29 02:02:44;;;;;;;0.50;0.50;;;7.80;99.90;;;;;;5051391;28;20432;-75
2024/03/29 02:05:10;;;;;;;0.52;0.52;;;7.80;99.90;;;;;;5070642;28;20048;-75
2024/03/29 02:07:37;;;;;;;0.60;0.60;;;7.80;99.90;;;;;;5087226;28;20075;-75
2024/03/29 02:10:05;;;;;;;0.50;0.50;;;7.80;99.90;;;;;;5059757;28;20043;-75
2024/03/29 02:12:31;;;;;;;0.50;0.50;;;7.90;99.90;;;;;;5068124;28;20052;-76
2024/03/29 02:14:58;;;;;;;0.50;0.50;;;7.90;99.90;;;;;;5084434;28;20058;-75
2024/03/29 02:17:23;;;;;;;0.50;0.50;;;7.80;99.90;;;;;;5083126;28;20058;-75
2024/03/29 02:19:49;;;;;;;0.40;0.40;;;7.80;99.90;;;;;;5067864;28;20467;-75
2024/03/29 02:22:16;;;;;;;0.40;0.40;;;7.80;99.90;;;;;;5085280;28;20039;-77
2024/03/29 02:24:42;;;;;;;0.50;0.50;;;7.80;99.90;;;;;;5070636;28;20085;-76
2024/03/29 02:27:08;;;;;;;0.40;0.40;;;7.80;99.90;;;;;;5084297;28;20111;-76
2024/03/29 02:29:36;;;;;;;0.50;0.50;;;7.70;99.90;;;;;;5087938;28;20032;-76
2024/03/29 02:32:05;;;;;;;0.50;0.50;;;7.70;99.90;;;;;;5080170;28;20166;-75
2024/03/29 02:34:30;;;;;;;0.40;0.40;;;7.60;99.90;;;;;;5075121;28;20410;-76
2024/03/29 02:36:57;;;;;;;0.40;0.40;;;7.60;99.90;;;;;;5068518;28;20039;-76
2024/03/29 02:39:23;;;;;;;0.50;0.50;;;7.50;99.90;;;;;;5071407;28;20043;-76
2024/03/29 02:41:48;;;;;;;0.52;0.52;;;7.50;99.90;;;;;;5086640;28;20402;-75
2024/03/29 02:44:15;;;;;;;0.50;0.50;;;7.50;99.90;;;;;;5083581;28;20062;-76
2024/03/29 02:46:42;;;;;;;0.60;0.60;;;7.50;99.90;;;;;;5084126;28;20039;-75
2024/03/29 02:49:08;;;;;;;0.50;0.50;;;7.50;99.90;;;;;;5086382;28;20035;-75
2024/03/29 02:51:33;;;;;;;0.40;0.40;;;7.40;99.90;;;;;;5087317;28;20118;-75
2024/03/29 02:53:59;;;;;;;0.40;0.40;;;7.40;99.90;;;;;;5067281;28;20123;-77
2024/03/29 02:56:26;;;;;;;0.50;0.50;;;7.40;99.90;;;;;;5069969;28;20477;-75
2024/03/29 02:58:52;;;;;;;0.50;0.50;;;7.40;99.90;;;;;;5086030;28;20127;-75
2024/03/29 03:01:18;;;;;;;0.52;0.52;;;7.50;99.90;;;;;;5086620;28;20115;-76
2024/03/29 03:03:44;;;;;;;0.50;0.50;;;7.50;99.90;;;;;;5067901;28;20043;-75
2024/03/29 03:06:09;;;;;;;0.40;0.40;;;7.50;99.90;;;;;;5050758;28;20285;-74
2024/03/29 03:11:20;;;;;;;0.45;0.45;;;7.50;99.90;;;;;;5087234;28;20087;-76
2024/03/29 03:13:45;;;;;;;0.40;0.40;;;7.40;99.90;;;;;;5085364;28;20072;-75
2024/03/29 03:16:11;;;;;;;0.40;0.40;;;7.30;99.90;;;;;;5065247;28;20262;-76
2024/03/29 03:18:37;;;;;;;0.45;0.45;;;7.90;99.90;;;;;;5069495;28;20051;-76
2024/03/29 03:21:03;;;;;;;0.40;0.40;;;7.30;99.90;;;;;;5087020;28;20039;-76
2024/03/29 03:23:29;;;;;;;0.45;0.45;;;7.20;99.90;;;;;;5086160;28;20058;-76
2024/03/29 03:25:56;;;;;;;0.43;0.43;;;7.20;99.90;;;;;;5069506;28;20066;-74
2024/03/29 03:28:22;;;;;;;0.32;0.32;;;7.10;99.90;;;;;;5084713;28;20468;-75
2024/03/29 03:30:52;;;;;;;0.60;0.60;;;7.10;99.90;;;;;;5068075;28;20068;-75
2024/03/29 03:33:17;;;;;;;0.50;0.50;;;7.10;99.90;;;;;;5081318;28;20131;-74
2024/03/29 03:35:44;;;;;;;0.40;0.40;;;7.10;99.90;;;;;;5084905;28;20127;-75
2024/03/29 03:38:10;;;;;;;0.50;0.50;;;7.30;99.90;;;;;;5066057;28;20071;-75
2024/03/29 03:40:36;;;;;;;0.50;0.50;;;7.10;99.90;;;;;;5033348;28;20044;-75
2024/03/29 03:43:02;;;;;;;;;;;7.20;99.90;;;;;;5055585;28;20048;-75
2024/03/29 03:45:28;;;;;;;0.50;0.50;;;7.20;99.90;;;;;;5087639;28;19924;-76
2024/03/29 03:47:54;;;;;;;0.52;0.52;;;7.20;99.90;;;;;;5068609;28;20499;-76
2024/03/29 03:50:19;;;;;;;0.30;0.30;;;7.20;99.90;;;;;;5068649;28;20054;-76
2024/03/29 03:52:45;;;;;;;0.80;0.80;;;7.30;99.90;;;;;;5041646;28;20513;-75
2024/03/29 03:55:11;;;;;;;0.50;0.50;;;7.30;99.90;;;;;;5034201;28;20033;-74
2024/03/29 03:57:37;;;;;;;0.50;0.50;;;7.30;99.90;;;;;;5084229;28;20133;-76
2024/03/29 04:00:03;;;;;;;0.40;0.40;;;7.40;99.90;;;;;;5084549;28;20055;-76
2024/03/29 04:02:29;;;;;;;0.40;0.40;;;7.40;99.90;;;;;;5067387;28;20051;-76
2024/03/29 04:04:55;;;;;;;0.40;0.40;;;7.30;99.90;;;;;;5041795;28;20052;-76
2024/03/29 04:07:20;;;;;;;0.20;0.20;;;7.60;99.90;;;;;;5082306;28;20048;-75
2024/03/29 04:09:50;;;;;;;0.60;0.60;;;7.40;99.90;;;;;;5085352;28;20510;-75
2024/03/29 04:12:15;;;;;;;0.32;0.32;;;7.40;99.90;;;;;;5056205;28;20048;-76
2024/03/29 04:14:41;;;;;;;0.60;0.60;;;7.40;99.90;;;;;;5055724;28;20441;-75
2024/03/29 04:17:07;;;;;;;0.45;0.45;;;7.30;99.90;;;;;;5069699;28;20146;-77
2024/03/29 04:19:32;;;;;;;0.40;0.40;;;7.40;99.90;;;;;;5089902;28;20044;-76
2024/03/29 04:21:58;;;;;;;0.40;0.40;;;7.30;99.90;;;;;;5072156;28;20043;-76
2024/03/29 04:24:24;;;;;;;1.45;1.38;;;7.40;99.90;;;;;;5070887;28;20127;-76
2024/03/29 04:26:50;;;;;;;0.50;0.50;;;7.40;99.90;;;;;;5054805;28;20036;-76
2024/03/29 04:29:16;;;;;;;0.70;0.70;;;7.50;99.90;;;;;;5088623;28;20101;-76
2024/03/29 04:31:45;;;;;;;0.40;0.40;;;7.60;99.90;;;;;;5063276;28;20474;-75
2024/03/29 04:34:11;;;;;;;0.38;0.38;;;7.50;99.90;;;;;;5071778;28;20044;-76
2024/03/29 04:36:36;;;;;;;0.50;0.50;;;7.90;99.90;;;;;;5086874;28;20094;-75
2024/03/29 04:39:02;;;;;;;0.50;0.50;;;7.60;99.90;;;;;;5051905;28;20402;-76
2024/03/29 04:41:28;;;;;;;0.57;0.57;;;7.70;99.90;;;;;;5058962;28;20092;-77
2024/03/29 04:43:54;;;;;;;0.50;0.50;;;7.70;99.90;;;;;;5060987;28;20131;-76
2024/03/29 04:46:20;;;;;;;0.65;0.65;;;7.70;99.90;;;;;;5069232;28;20131;-74
2024/03/29 04:48:45;;;;;;;0.47;0.47;;;7.70;99.90;;;;;;5071167;28;20122;-75
2024/03/29 04:51:12;;;;;;;0.50;0.50;;;7.80;99.90;;;;;;5089198;28;20100;-76
2024/03/29 04:53:39;;;;;;;0.40;0.40;;;7.80;99.90;;;;;;5072518;28;20482;-76
2024/03/29 04:56:05;;;;;;;0.40;0.40;;;7.80;99.90;;;;;;5088545;28;20035;-76
2024/03/29 04:58:31;;;;;;;0.52;0.52;;;7.80;99.90;;;;;;5089698;28;20089;-75
2024/03/29 05:00:58;;;;;;;0.43;0.43;;;7.80;99.90;;;;;;5086912;28;20051;-75
2024/03/29 05:03:24;;;;;;;0.40;0.40;;;7.70;99.90;;;;;;5066434;28;20047;-77
2024/03/29 05:05:50;;;;;;;;;;;8.00;99.90;;;;;;5070299;28;20028;-75
2024/03/29 05:08:17;;;;;;;0.40;0.40;;;7.70;99.90;;;;;;5085843;28;20391;-77
2024/03/29 05:10:43;;;;;;;0.40;0.40;;;7.80;99.90;;;;;;5068190;28;21320;-76
2024/03/29 05:13:09;;;;;;;0.40;0.40;;;8.10;99.90;;;;;;5067916;28;20067;-75
2024/03/29 05:15:34;;;;;;;0.40;0.40;;;7.90;99.90;;;;;;5085509;28;20127;-76
2024/03/29 05:18:00;;;;;;;0.47;0.47;;;7.90;99.90;;;;;;5088549;28;20123;-77
2024/03/29 05:20:26;;;;;;;0.40;0.40;;;8.20;99.90;;;;;;5069561;28;20088;-78
2024/03/29 05:22:52;;;;;;;0.40;0.40;;;8.00;99.90;;;;;;5086092;28;20393;-78
2024/03/29 05:25:17;;;;;;;0.50;0.50;;;8.10;99.90;;;;;;5069018;28;20055;-77
2024/03/29 05:27:43;;;;;;;0.50;0.50;;;8.10;99.90;;;;;;5070974;28;20489;-75
2024/03/29 05:30:13;;;;;;;0.50;0.50;;;8.20;99.90;;;;;;5073352;28;20036;-78
2024/03/29 05:32:39;;;;;;;0.43;0.43;;;8.20;99.90;;;;;;5086211;28;20050;-76
2024/03/29 05:35:05;;;;;;;;;;;8.30;99.90;;;;;;5087276;28;20074;-76
2024/03/29 05:37:30;;;;;;;0.50;0.50;;;8.20;99.90;;;;;;5087646;28;19919;-78
2024/03/29 05:39:59;;;;;;;0.50;0.50;;;8.50;99.90;;;;;;5068528;28;20048;-78
2024/03/29 05:42:30;;;;;;;0.50;0.50;;;8.40;99.90;;;;;;5066278;28;20052;-78
2024/03/29 05:44:56;;;;;;;0.50;0.50;;;8.40;99.90;;;;;;5069549;28;20042;-77
2024/03/29 05:47:22;;;;;;;0.40;0.40;;;8.40;99.90;;;;;;5088471;28;20124;-76
2024/03/29 05:49:49;;;;;;;0.50;0.50;;;8.90;99.90;;;;;;5064516;28;20036;-77
2024/03/29 05:52:15;;;;;;;0.95;0.95;;;8.40;99.90;;;;;;5084248;28;20036;-76
2024/03/29 05:54:41;;;;;;;;;;;8.40;99.90;;;;;;5084493;28;20048;-76
2024/03/29 05:57:08;;;;;;;0.50;0.50;;;8.40;99.90;;;;;;5052157;28;19941;-77
2024/03/29 05:59:34;;;;;;;0.35;0.35;;;9.10;99.90;;;;;;5054876;28;20561;-75
2024/03/29 06:02:00;;;;;;;0.30;0.30;;;8.50;99.90;;;;;;5070247;28;20397;-76
2024/03/29 06:04:36;;;;;;;0.40;0.40;;;8.50;99.90;;;;;;5071550;28;20059;-76
2024/03/29 06:07:06;;;;;;;0.50;0.50;;;8.40;99.90;;;;;;5087075;28;20040;-76
2024/03/29 06:09:33;;;;;;;0.57;0.57;;;8.50;99.90;;;;;;5087613;28;20477;-76
2024/03/29 06:11:59;;;;;;;0.50;0.50;;;8.70;99.90;;;;;;5055598;28;20374;-76
2024/03/29 06:17:25;;;;;;;0.80;0.80;;;8.60;99.90;;;;;;5085705;28;20056;-77
2024/03/29 06:19:54;;;;;;;0.43;0.43;;;8.60;99.90;;;;;;5088293;28;20111;-78
2024/03/29 06:22:19;;;;;;;0.30;0.30;;;8.50;99.90;;;;;;5068196;28;20064;-76
2024/03/29 06:24:46;;;;;;;0.40;0.40;;;8.60;99.90;;;;;;5083253;28;20522;-77
2024/03/29 06:27:16;;;;;;;0.40;0.40;;;8.60;99.90;;;;;;5067585;28;21215;-77
2024/03/29 06:29:42;;;;;;;0.40;0.40;;;8.70;99.90;;;;;;5067837;28;20079;-77
2024/03/29 06:32:07;;;;;;;0.40;0.40;;;8.20;99.90;;;;;;5088859;28;20068;-76
2024/03/29 06:34:33;;;;;;;0.38;0.38;;;8.70;99.90;;;;;;5087235;28;20449;-76
2024/03/29 06:36:59;;;;;;;0.40;0.40;;;8.80;99.90;;;;;;5085369;28;20035;-77
2024/03/29 06:39:25;;;;;;;0.40;0.40;;;8.80;99.90;;;;;;5067676;28;20516;-78
2024/03/29 06:41:52;;;;;;;0.40;0.40;;;8.80;99.90;;;;;;5067166;28;20505;-76
2024/03/29 06:44:17;;;;;;;;;;;7.90;99.90;;;;;;5068589;28;20052;-76
2024/03/29 06:46:43;;;;;;;0.30;0.30;;;8.90;99.90;;;;;;5073655;28;19969;-75
2024/03/29 06:49:09;;;;;;;0.40;0.40;;;8.90;99.90;;;;;;5069340;28;20040;-76
2024/03/29 06:51:34;;;;;;;0.30;0.30;;;8.90;99.90;;;;;;5069381;28;20071;-76
2024/03/29 06:54:00;;;;;;;0.40;0.40;;;9.00;99.90;;;;;;5086549;28;20043;-76
2024/03/29 06:56:26;;;;;;;0.22;0.22;;;9.30;99.90;;;;;;5068886;28;20036;-76
2024/03/29 06:58:52;;;;;;;0.40;0.40;;;9.00;99.90;;;;;;5087947;28;20131;-76
2024/03/29 07:01:17;;;;;;;0.45;0.45;;;9.10;99.90;;;;;;5087591;28;20051;-78
2024/03/29 07:03:43;;;;;;;0.40;0.40;;;9.50;99.90;;;;;;5086496;28;20055;-74
2024/03/29 07:06:09;;;;;;;0.40;0.40;;;9.20;99.90;;;;;;5068103;28;20629;-76
2024/03/29 07:08:35;;;;;;;0.30;0.30;;;9.30;99.90;;;;;;5069893;28;20039;-76
2024/03/29 07:11:01;;;;;;;0.55;0.55;;;9.30;99.90;;;;;;5088711;28;20063;-76
2024/03/29 07:13:31;;;;;;;0.40;0.40;;;9.40;99.90;;;;;;5087444;28;20077;-76
2024/03/29 07:16:01;;;;;;;0.40;0.40;;;9.40;99.90;;;;;;5065074;28;20048;-76
2024/03/29 07:18:27;;;;;;;0.30;0.30;;;9.50;99.90;;;;;;5087230;28;20127;-74
2024/03/29 07:20:53;;;;;;;0.40;0.40;;;9.50;99.90;;;;;;5084113;28;20052;-76
2024/03/29 07:23:20;;;;;;;0.40;0.40;;;9.60;99.90;;;;;;5087407;28;20812;-75
2024/03/29 07:26:04;;;;;;;0.40;0.40;;;9.70;99.90;;;;;;5087269;28;20524;-75
2024/03/29 07:28:30;;;;;;;0.30;0.30;;;9.70;99.90;;;;;;5069715;28;20108;-76
2024/03/29 07:30:56;;;;;;;0.30;0.30;;;9.80;99.90;;;;;;5085260;28;20071;-72
2024/03/29 07:33:26;;;;;;;0.50;0.50;;;9.70;99.90;;;;;;5088087;28;20039;-80
2024/03/29 07:35:53;;;;;;;0.32;0.32;;;9.90;99.90;;;;;;5087092;28;20101;-78
2024/03/29 07:38:20;;;;;;;0.20;0.20;;;10.00;99.90;;;;;;5051509;28;20131;-78
2024/03/29 07:40:50;;;;;;;0.30;0.30;;;10.00;99.90;;;;;;5085228;28;20048;-80
2024/03/29 07:43:15;;;;;;;0.28;0.28;;;10.00;99.90;;;;;;5052893;28;20063;-79
2024/03/29 07:45:44;;;;;;;0.40;0.40;;;9.90;99.90;;;;;;5091007;28;20044;-79
2024/03/29 07:48:14;;;;;;;0.30;0.30;;;9.90;99.90;;;;;;5074567;28;20102;-78
2024/03/29 07:50:45;;;;;;;0.30;0.30;;;9.90;99.90;;;;;;5074825;28;20040;-79
2024/03/29 07:53:11;;;;;;;0.30;0.30;;;10.00;99.90;;;;;;5093657;28;20028;-78
2024/03/29 07:55:39;;;;;;;0.30;0.30;;;9.90;99.90;;;;;;5092113;28;20412;-77
2024/03/29 07:58:05;;;;;;;0.30;0.30;;;9.90;99.90;;;;;;5090731;28;20035;-79
2024/03/29 08:00:32;;;;;;;0.40;0.40;;;10.00;99.90;;;;;;5075113;28;20091;-78
2024/03/29 08:02:59;;;;;;;0.35;0.35;;;10.10;99.90;;;;;;5075524;28;20043;-77
2024/03/29 08:05:24;;;;;;;0.50;0.50;;;10.30;99.90;;;;;;5091792;28;20409;-79
2024/03/29 08:07:50;;;;;;;0.40;0.40;;;10.10;99.90;;;;;;5091763;28;20035;-78
2024/03/29 08:10:16;;;;;;;0.20;0.20;;;10.10;99.90;;;;;;5072480;28;20119;-79
2024/03/29 08:12:42;;;;;;;0.40;0.40;;;10.00;99.90;;;;;;5090509;28;20042;-77
2024/03/29 08:15:08;;;;;;;;;;;10.00;99.90;;;;;;5092632;28;20054;-80
2024/03/29 08:17:34;;;;;;;0.30;0.30;;;10.00;99.90;;;;;;5053955;28;20410;-79
2024/03/29 08:20:00;;;;;;;0.45;0.45;;;10.00;99.90;;;;;;5050993;28;20513;-79
2024/03/29 08:22:28;;;;;;;2.25;2.05;;;10.60;99.90;;;;;;5037507;28;20051;-80
2024/03/29 08:24:54;;;;;;;0.68;0.68;;;10.10;99.90;;;;;;5092700;28;20091;-78
2024/03/29 08:27:19;;;;;;;0.40;0.40;;;10.70;99.90;;;;;;5073339;28;20036;-78
2024/03/29 08:29:45;;;;;;;0.30;0.30;;;10.20;99.90;;;;;;5039411;28;20493;-77
2024/03/29 08:32:12;;;;;;;0.40;0.40;;;10.30;99.90;;;;;;5055561;28;20485;-79
2024/03/29 08:34:38;;;;;;;0.38;0.38;;;10.20;99.90;;;;;;5090535;28;20302;-80
2024/03/29 08:37:04;;;;;;;0.30;0.30;;;10.30;99.90;;;;;;5092423;28;20036;-78
2024/03/29 08:39:31;;;;;;;;;;;10.20;99.90;;;;;;5091331;28;20470;-80
2024/03/29 08:42:04;;;;;;;0.40;0.40;;;10.10;99.90;;;;;;5072395;28;19924;-78
2024/03/29 08:44:34;;;;;;;0.30;0.30;;;10.10;99.90;;;;;;5074201;28;20076;-80
2024/03/29 08:47:03;;;;;;;0.30;0.30;;;10.20;99.90;;;;;;5070353;28;20047;-78
2024/03/29 08:49:29;;;;;;;0.45;0.45;;;10.10;99.90;;;;;;5073278;28;20036;-80
2024/03/29 08:51:56;;;;;;;0.30;0.30;;;11.00;99.90;;;;;;5072078;28;20043;-80
2024/03/29 08:54:21;;;;;;;0.30;0.30;;;10.50;99.90;;;;;;5057939;28;20031;-80
2024/03/29 08:56:47;;;;;;;0.40;0.40;;;10.20;99.90;;;;;;5089129;28;20039;-81
2024/03/29 08:59:14;;;;;;;0.35;0.35;;;10.20;99.90;;;;;;5091570;28;20062;-79
2024/03/29 09:01:45;;;;;;;0.25;0.25;;;10.20;99.90;;;;;;5090384;28;20051;-79
2024/03/29 09:04:12;;;;;;;0.30;0.30;;;10.20;99.90;;;;;;5089978;28;20036;-78
2024/03/29 09:06:38;;;;;;;0.40;0.40;;;10.30;99.90;;;;;;5075474;28;20058;-79
2024/03/29 09:09:07;;;;;;;0.28;0.28;;;10.40;99.90;;;;;;5087910;28;20742;-80
2024/03/29 09:11:33;;;;;;;0.30;0.30;;;10.50;99.90;;;;;;5090194;28;20032;-81
2024/03/29 09:14:00;;;;;;;0.38;0.38;;;10.60;99.90;;;;;;5073289;28;20036;-81
2024/03/29 09:16:27;;;;;;;0.30;0.30;;;10.70;99.90;;;;;;5092639;28;20109;-81
2024/03/29 09:18:54;;;;;;;0.30;0.30;;;10.80;99.90;;;;;;5060207;28;20065;-81
2024/03/29 09:21:20;;;;;;;0.30;0.30;;;10.80;99.90;;;;;;5057682;28;20104;-81
2024/03/29 09:23:48;;;;;;;0.30;0.30;;;10.80;99.90;;;;;;5022132;28;20075;-80
2024/03/29 09:26:17;;;;;;;0.30;0.30;;;11.00;99.90;;;;;;5090783;28;20036;-79
2024/03/29 09:28:43;;;;;;;0.28;0.28;;;11.00;99.90;;;;;;5055930;28;20028;-80
2024/03/29 09:31:09;;;;;;;0.32;0.32;;;11.00;99.90;;;;;;5090675;28;20081;-78
2024/03/29 09:33:35;;;;;;;0.52;0.52;;;11.00;99.90;;;;;;5082160;28;20571;-79
2024/03/29 09:36:01;;;;;;;0.40;0.40;;;11.00;99.90;;;;;;5059596;28;20126;-79
2024/03/29 09:38:27;;;;;;;0.30;0.30;;;10.90;99.90;;;;;;5093108;28;20055;-78
2024/03/29 09:41:14;;;;;;;0.30;0.30;;;10.80;99.90;;;;;;5077550;28;20036;-79
2024/03/29 09:43:44;;;;;;;0.40;0.40;;;10.90;99.90;;;;;;5091072;28;20071;-78
2024/03/29 09:46:11;;;;;;;0.30;0.30;;;10.90;99.90;;;;;;5085513;28;20063;-80
2024/03/29 09:48:40;;;;;;;;;;;11.20;99.90;;;;;;5091413;28;20048;-80
2024/03/29 09:51:07;;;;;;;0.40;0.40;;;11.30;99.90;;;;;;5073075;28;20003;-80
2024/03/29 09:53:37;;;;;;;0.30;0.30;;;11.40;99.90;;;;;;5072933;28;20028;-80
2024/03/29 09:56:05;;;;;;;0.30;0.30;;;11.40;99.90;;;;;;5071221;28;20036;-80
2024/03/29 09:58:31;;;;;;;0.30;0.30;;;11.50;99.90;;;;;;5090855;28;20105;-80
2024/03/29 10:00:57;;;;;;;0.17;0.17;;;11.20;99.90;;;;;;5077460;28;20048;-81
2024/03/29 10:03:29;;;;;;;0.30;0.30;;;11.60;99.90;;;;;;5076933;28;20397;-78
2024/03/29 10:05:59;;;;;;;0.20;0.20;;;11.60;99.90;;;;;;5056145;28;20449;-80
2024/03/29 10:08:27;;;;;;;0.30;0.30;;;11.50;99.90;;;;;;5084941;28;20111;-80
2024/03/29 10:10:54;;;;;;;0.30;0.30;;;11.30;99.90;;;;;;5076808;28;20044;-80
2024/03/29 10:13:20;;;;;;;0.63;0.63;;;11.30;99.90;;;;;;5075240;28;20071;-80
2024/03/29 10:15:49;;;;;;;;;;;11.20;99.90;;;;;;5070040;28;20829;-79
2024/03/29 10:18:17;;;;;;;0.38;0.38;;;11.20;99.90;;;;;;5087979;28;20008;-79
2024/03/29 10:20:46;;;;;;;0.30;0.30;;;11.30;99.90;;;;;;5090174;28;20052;-79
2024/03/29 10:23:12;;;;;;;0.45;0.45;;;11.40;99.90;;;;;;5073037;28;20059;-79
2024/03/29 10:25:38;;;;;;;0.30;0.30;;;11.30;99.90;;;;;;5088115;28;20099;-81
2024/03/29 10:28:04;;;;;;;0.30;0.30;;;11.40;99.90;;;;;;5056261;28;20044;-78
2024/03/29 10:30:30;;;;;;;0.30;0.30;;;11.50;99.90;;;;;;5054120;28;20563;-81
2024/03/29 10:32:57;;;;;;;;;;;11.60;99.90;;;;;;5055672;28;20058;-78
2024/03/29 10:35:24;;;;;;;0.40;0.40;;;11.70;99.90;;;;;;5071941;28;19973;-80
2024/03/29 10:37:52;;;;;;;0.30;0.30;;;11.80;99.90;;;;;;5090316;28;20048;-79
2024/03/29 10:40:22;;;;;;;0.20;0.20;;;11.80;99.90;;;;;;5073238;28;20028;-79
2024/03/29 10:42:49;;;;;;;0.30;0.30;;;11.90;99.90;;;;;;5054113;28;20314;-80
2024/03/29 10:45:16;;;;;;;0.30;0.30;;;11.90;99.90;;;;;;5090814;28;20044;-79
2024/03/29 10:47:46;;;;;;;0.40;0.40;;;12.10;99.90;;;;;;5071211;28;20638;-78
2024/03/29 10:50:17;;;;;;;0.30;0.30;;;12.20;99.90;;;;;;5067196;28;20040;-80
2024/03/29 10:52:43;;;;;;;0.30;0.30;;;12.20;99.90;;;;;;5089422;28;20123;-80
2024/03/29 10:55:09;;;;;;;;;;;12.20;99.90;;;;;;5090125;28;20036;-79
2024/03/29 10:57:42;;;;;;;0.50;0.50;;;12.30;99.90;;;;;;5088067;28;20343;-80
2024/03/29 11:00:14;;;;;;;0.20;0.20;;;12.50;99.90;;;;;;5089156;28;20046;-79
2024/03/29 11:02:50;;;;;;;0.30;0.30;;;12.60;99.90;;;;;;5088609;28;20067;-80
2024/03/29 11:05:22;;;;;;;0.40;0.40;;;12.60;99.90;;;;;;5088286;28;20047;-80
2024/03/29 11:07:51;;;;;;;0.40;0.40;;;12.70;99.90;;;;;;5089767;28;20079;-84
2024/03/29 11:10:50;;;;;;;0.30;0.30;;;13.00;99.90;;;;;;5090685;28;20468;-80
2024/03/29 11:13:33;;;;;;;0.20;0.20;;;13.30;99.90;;;;;;5046053;28;20056;-79
2024/03/29 11:16:00;;;;;;;0.30;0.30;;;13.40;99.90;;;;;;5086115;28;20035;-80
2024/03/29 11:18:27;;;;;;;0.75;0.75;;;13.50;99.90;;;;;;5088616;28;20266;-82
2024/03/29 11:20:54;;;;;;;0.30;0.30;;;13.60;99.90;;;;;;5089656;28;20040;-81
2024/03/29 11:23:21;;;;;;;0.30;0.30;;;13.50;99.90;;;;;;5076276;28;20082;-82
2024/03/29 11:25:57;;;;;;;0.30;0.30;;;13.40;99.90;;;;;;5087735;28;20039;-81
2024/03/29 11:28:34;;;;;;;0.30;0.30;;;13.20;99.90;;;;;;5087659;28;20043;-80
2024/03/29 11:31:07;;;;;;;0.63;0.63;;;13.10;99.90;;;;;;5067052;28;20028;-80
2024/03/29 11:33:34;;;;;;;0.20;0.20;;;13.00;99.90;;;;;;5088265;28;20489;-80
2024/03/29 11:36:23;;;;;;;0.30;0.30;;;13.00;99.90;;;;;;5088186;28;20519;-81
2024/03/29 11:38:51;;;;;;;0.30;0.30;;;13.10;99.90;;;;;;5049754;28;20071;-78
2024/03/29 11:41:21;;;;;;;0.20;0.20;;;13.00;99.90;;;;;;5073682;28;20036;-78
2024/03/29 11:43:47;;;;;;;0.20;0.20;;;12.90;99.90;;;;;;5086328;28;20439;-79
2024/03/29 11:46:15;;;;;;;0.40;0.40;;;12.80;99.90;;;;;;5072884;28;20086;-80
2024/03/29 11:48:41;;;;;;;0.20;0.20;;;12.80;99.90;;;;;;5054744;28;20036;-79
2024/03/29 11:51:10;;;;;;;0.30;0.30;;;13.00;99.90;;;;;;5055779;28;20024;-80
2024/03/29 11:53:36;;;;;;;0.30;0.30;;;13.30;99.90;;;;;;5053656;28;20044;-79
2024/03/29 11:56:03;;;;;;;;;;;13.60;99.90;;;;;;5069696;28;20385;-77
2024/03/29 11:58:30;;;;;;;0.40;0.40;;;13.80;99.90;;;;;;5088829;28;19923;-79
2024/03/29 12:00:58;;;;;;;0.52;0.52;;;14.00;99.90;;;;;;5054374;28;20047;-79
2024/03/29 12:03:29;;;;;;;0.20;0.20;;;14.20;99.90;;;;;;5071225;28;20044;-80
2024/03/29 12:06:03;;;;;;;0.43;0.43;;;14.10;99.90;;;;;;5089630;28;20036;-80
2024/03/29 12:08:41;;;;;;;0.30;0.30;;;14.10;99.90;;;;;;5069566;28;20040;-79
2024/03/29 12:11:07;;;;;;;0.40;0.40;;;14.20;99.90;;;;;;5071095;28;20047;-81
2024/03/29 12:13:33;;;;;;;0.28;0.28;;;14.40;99.90;;;;;;5076917;28;20036;-79
2024/03/29 12:15:59;;;;;;;0.25;0.25;;;14.60;99.90;;;;;;5071163;28;20122;-79
2024/03/29 12:18:27;;;;;;;20.92;0.82;;;14.60;99.90;;;;;;5089465;28;20075;-80
2024/03/29 12:20:54;;;;;;;0.65;0.65;;;14.50;99.90;;;;;;5068904;28;20516;-79
2024/03/29 12:23:20;;;;;;;;;;;14.40;99.90;;;;;;5037005;28;20123;-80
2024/03/29 12:25:48;;;;;;;0.57;0.57;;;14.30;99.90;;;;;;5088758;28;19934;-80
2024/03/29 12:28:14;;;;;;;0.20;0.20;;;14.40;99.90;;;;;;5075270;28;20039;-78
2024/03/29 12:30:42;;;;;;;1.08;1.08;;;14.40;99.90;;;;;;5090533;28;20040;-80
2024/03/29 12:33:14;;;;;;;0.20;0.20;;;14.30;99.90;;;;;;5091479;28;20044;-79
2024/03/29 12:35:44;;;;;;;0.22;0.22;;;14.50;99.90;;;;;;5092697;28;20401;-79
2024/03/29 12:38:15;;;;;;;0.40;0.40;;;14.60;99.90;;;;;;5062542;28;20083;-80
2024/03/29 12:40:43;;;;;;;3.60;0.82;;;14.70;99.90;;;;;;5062606;28;20097;-78
2024/03/29 12:43:10;;;;;;;0.38;0.38;;;14.60;99.90;;;;;;5074672;28;20047;-79
2024/03/29 12:45:39;;;;;;;0.30;0.30;;;14.60;99.90;;;;;;5091594;28;20047;-80
2024/03/29 12:48:20;;;;;;;0.30;0.30;;;14.60;99.90;;;;;;5091742;28;20044;-80
2024/03/29 12:50:46;;;;;;;0.20;0.20;;;14.70;99.90;;;;;;5074636;28;20036;-79
2024/03/29 12:53:13;;;;;;;0.30;0.30;;;14.80;99.90;;;;;;5076889;28;20032;-78
2024/03/29 12:55:45;;;;;;;0.30;0.30;;;14.80;99.90;;;;;;5082877;28;20052;-77
2024/03/29 12:58:16;;;;;;;0.60;0.60;;;14.80;99.90;;;;;;5072747;28;20105;-79
2024/03/29 13:00:43;;;;;;;0.40;0.40;;;14.90;99.90;;;;;;5073962;28;20533;-79
2024/03/29 13:03:09;;;;;;;0.95;0.95;;;15.00;99.90;;;;;;5086050;28;20036;-78